Portada
METAR-TAF:

METAR-TAF

Aeroports :

Francistown, Botswana

latitud: 21-13S, longitud: 027-30E, altitud: 1001 m

Observació

L'informe es va fer fa 48 minuts, a les 16:00 UTC
Vent 7 kt del Est/Sud-Est
Temperatura 25°C
Humitat 44%
Pressió 1016 hPa
Visibilitat 10 km o més
sense núvols per sota de 1500 mi sense presència de cumulonimbus.

METAR: FBFT 261600Z 11007KT CAVOK 25/12 Q1016

Hora: 18:48 (16:48 UTC)

Pronòstic

L'informe es va fer fa 4 hores i 48 minuts, a les 12:00 UTC
Pronòstic vàlid del 26 a les 15 UTC al 26 a les 24 UTC
Vent 7 kt del Est
Visibilitat 10 km o més
Núvols disperses a una alçada de 3000 ft

TAF: FBFT 261200Z 2615/2624 08007KT 9999 SCT030

Observacions i pronòstics meteorològics de més de 4000 aeroports (METAR i TAF).

Les estacions disponibles són els punts grocs i vermells al mapa.

Posi el ratolí al punt desitjat per veure el nom de l'estació.

Feu clic per veure les observacions i els pronòstics meteorològics.

Per canviar el mapa: feu clic els botons verds amb una creu de color negre per apropar; al botó verd amb un guió per allunyar la imatge; o en les fletxes verdes per a mapes adjacents.


METAR-TAF: